Guillena, Spain
Current Conditions -  °F | °C
As of 3:30 AM on Thursday 23 Oct 2014 (Local Time) from LEZL Reporting Station
Clear Clear  
Wind Chill: 66°   Ceiling: Unl
Heat Index: 66°   Visibility: 6mi
Dew Point: 50°   Wind: 9mph
Humidity: 56%   Direction: 60°ENE
Pressure: 30.15"   Gusts: NA
Location:  37.54°N, 6.06°W
Report Text: LEZL 230130Z 06008KT CAVOK 19/10 Q1021 NOSIG
Loading
Personal Weather Stations






























Interactive Weather Map
Tropical Storm Tracking
New forecast layout! Learn more

10-Day Weather Forecast

Advertisements
Track Severe Weather on mobile